createdAt,value
2024-03-26T00:04:19.313Z,81.97
2024-03-26T00:14:22.806Z,82.40
2024-03-26T00:24:25.710Z,82.10
2024-03-26T00:34:28.775Z,82.59
2024-03-26T00:44:31.648Z,83.39
2024-03-26T00:54:34.592Z,83.68
2024-03-26T01:04:37.494Z,84.32
2024-03-26T01:14:40.348Z,84.20
2024-03-26T01:24:43.316Z,84.66
2024-03-26T01:34:46.186Z,84.30
2024-03-26T01:44:49.176Z,83.42
2024-03-26T01:54:52.536Z,83.44
2024-03-26T02:04:55.862Z,83.54
2024-03-26T02:14:58.778Z,83.27
2024-03-26T02:25:01.824Z,83.37
2024-03-26T02:35:04.997Z,83.14
2024-03-26T02:45:08.804Z,83.68
2024-03-26T02:55:12.004Z,83.58
2024-03-26T03:05:15.055Z,83.52
2024-03-26T03:15:17.981Z,82.46
2024-03-26T03:25:21.441Z,82.17
2024-03-26T03:35:24.472Z,82.31
2024-03-26T03:45:29.353Z,82.92
2024-03-26T03:55:32.318Z,83.14
2024-03-26T04:05:38.702Z,83.40
2024-03-26T04:15:42.558Z,83.78
2024-03-26T04:25:56.042Z,82.98
2024-03-26T04:35:59.833Z,82.99
2024-03-26T04:46:02.775Z,83.38
2024-03-26T04:56:06.141Z,83.68
2024-03-26T05:06:09.052Z,84.00
2024-03-26T05:16:11.940Z,83.61
2024-03-26T05:26:15.253Z,83.15
2024-03-26T05:36:18.345Z,83.28
2024-03-26T05:46:21.715Z,83.45
2024-03-26T05:56:24.836Z,83.72
2024-03-26T06:06:27.715Z,83.91
2024-03-26T06:16:30.690Z,83.92
2024-03-26T06:26:33.683Z,83.12
2024-03-26T06:36:36.777Z,81.94
2024-03-26T06:46:40.253Z,80.69
2024-03-26T06:56:43.207Z,80.72
2024-03-26T07:06:46.288Z,80.02
2024-03-26T07:16:49.342Z,78.93
2024-03-26T07:26:52.448Z,77.84
2024-03-26T07:36:55.323Z,76.89
2024-03-26T07:46:59.838Z,76.38
2024-03-26T07:57:04.057Z,77.06
2024-03-26T08:07:08.315Z,77.94
2024-03-26T08:17:11.374Z,78.64
2024-03-26T08:27:14.322Z,78.35
2024-03-26T08:37:17.284Z,78.26
2024-03-26T08:47:20.211Z,78.20
2024-03-26T08:57:23.276Z,76.94
2024-03-26T09:07:26.193Z,76.36
2024-03-26T09:17:29.246Z,74.70
2024-03-26T09:27:32.283Z,72.58
2024-03-26T09:37:35.606Z,70.80
2024-03-26T09:47:40.778Z,70.32
2024-03-26T09:57:45.399Z,68.46
2024-03-26T10:07:48.352Z,66.54
2024-03-26T10:17:51.276Z,64.29
2024-03-26T10:27:56.899Z,62.49
2024-03-26T10:38:13.008Z,58.46
2024-03-26T10:48:21.493Z,55.91
2024-03-26T10:58:24.627Z,52.56
2024-03-26T11:08:28.143Z,50.77
2024-03-26T11:18:33.832Z,47.84
2024-03-26T11:28:37.722Z,47.33
2024-03-26T11:38:41.311Z,46.29
2024-03-26T11:48:46.766Z,45.23
2024-03-26T11:58:50.934Z,45.19
2024-03-26T12:08:59.244Z,44.42
2024-03-26T12:19:02.799Z,43.80
2024-03-26T12:29:08.468Z,42.44
2024-03-26T12:39:12.088Z,42.50
2024-03-26T12:49:19.369Z,43.48
2024-03-26T12:59:22.458Z,41.16
2024-03-26T13:09:25.386Z,42.37
2024-03-26T13:19:29.612Z,42.10
2024-03-26T13:29:33.371Z,42.85
2024-03-26T13:39:36.259Z,40.49
2024-03-26T13:49:39.655Z,40.27
2024-03-26T13:59:45.525Z,41.16
2024-03-26T14:09:48.460Z,41.55
2024-03-26T14:19:51.384Z,41.35
2024-03-26T14:29:55.303Z,41.45
2024-03-26T14:39:59.422Z,41.61
2024-03-26T14:50:02.473Z,42.76
2024-03-26T15:00:06.728Z,42.76
2024-03-26T15:10:10.747Z,42.32
2024-03-26T15:20:15.870Z,42.68
2024-03-26T15:30:39.811Z,43.16
2024-03-26T15:40:43.565Z,42.96
2024-03-26T15:50:47.147Z,43.91
2024-03-26T16:00:50.320Z,43.92
2024-03-26T16:21:04.276Z,44.59
2024-03-26T16:31:08.221Z,44.98
2024-03-26T16:41:21.301Z,47.05
2024-03-26T16:51:24.312Z,49.50
2024-03-26T17:01:29.492Z,49.98
2024-03-26T17:11:35.420Z,49.94
2024-03-26T17:21:40.020Z,50.84
2024-03-26T17:31:43.068Z,50.21
2024-03-26T17:41:46.004Z,50.94
2024-03-26T17:51:49.119Z,51.38
2024-03-26T18:01:55.322Z,53.15
2024-03-26T18:11:59.433Z,54.02
2024-03-26T18:22:04.627Z,55.66
2024-03-26T18:32:07.553Z,57.15
2024-03-26T18:42:11.141Z,58.94
2024-03-26T18:52:14.108Z,59.58
2024-03-26T19:02:17.085Z,60.45
2024-03-26T19:12:23.379Z,61.41
2024-03-26T19:22:28.978Z,61.82
2024-03-26T19:32:31.953Z,61.69
2024-03-26T19:42:34.794Z,62.12
2024-03-26T19:52:38.615Z,63.06
2024-03-26T20:02:45.002Z,63.72
2024-03-26T20:12:48.226Z,64.57
2024-03-26T20:22:55.733Z,65.74
2024-03-26T20:32:59.789Z,66.75
2024-03-26T20:43:02.808Z,67.25
2024-03-26T20:53:06.389Z,67.74
2024-03-26T21:03:09.738Z,68.35
2024-03-26T21:13:12.819Z,68.97
2024-03-26T21:23:26.072Z,69.49
2024-03-26T21:33:29.436Z,70.30
2024-03-26T21:43:32.651Z,70.85
2024-03-26T21:53:35.528Z,71.87
2024-03-26T22:03:39.347Z,72.17
2024-03-26T22:13:42.288Z,72.99
2024-03-26T22:23:46.446Z,73.24
2024-03-26T22:33:49.627Z,73.21
2024-03-26T22:43:52.798Z,73.42
2024-03-26T22:53:55.736Z,73.27
2024-03-26T23:03:58.709Z,73.15
2024-03-26T23:14:01.630Z,73.48
2024-03-26T23:24:05.343Z,73.83
2024-03-26T23:34:08.589Z,73.81
2024-03-26T23:44:11.449Z,73.83
2024-03-26T23:54:14.336Z,74.26
